默认 日期 大小 文件数 浏览量 最新下载 xml
moon men磁力链接相关资源由用户搜索指令自动获取,结果来源于网络,本站不存储任何资料,亦不承担任何责任,请于24小时内删除,搜索到175个磁力,用时4ms。
    {"vmt-menmoon-xvid.avi": 734998528, "vmt-menmoon-xvid.nfo": 11289, "www.Torrentday.com.txt": 502, "Read This Guide Now.txt": 502}
创建时间: 2018-11-13 05:38:17 大小:700.96 MB 文件数量:4 热度:9 最近下载:2023-04-14 12:00:22
    ... Unchained Melody.mp3": 8848686, "03 Men's Conversation.mp3": 12912982, "08 ...
创建时间: 2018-11-13 19:19:55 大小:110.17 MB 文件数量:9 热度:9 最近下载:2025-01-10 21:46:05
    {"2016 - Decadence": {"cover.jpg": 120575, "01. Decadence.mp3": 22563240}, "2012 - Echo Forever": {"cover.jpg": 58736, "04. Darkness.mp3": 17856834, "01. Echo Forever.mp3": 17691748, "02. Atomic Mother.mp3": 19973807, "07. Avant-Garde Luxury.mp3": 26668478 ...
创建时间: 2018-11-13 21:22:53 大小:773.14 MB 文件数量:49 热度:9 最近下载:2023-04-14 21:10:02
    {"Proof": {"first.men.in.the.moon.1964.720p.bluray.x264-sadpanda_proof.jpg": 1641984}, "readme.txt": 352, "Torrent-Downloaded-From-ExtraTorrent.cc.txt": 352, "First.Men.in.the.Moon.1964.720p.BluRay.x264-SADPANDA.mkv": 4692575460}
创建时间: 2018-11-17 18:36:42 大小:4.37 GB 文件数量:4 热度:12 最近下载:2025-03-04 20:54:03
    ... . Sails Of Hope.mp3": 14717737, "Men's Conversation.jpg": 57748, "07 ... . Unchained Melody.mp3": 8640515, "03. Men's Conversation.mp3": 12704811, "08 ...
创建时间: 2018-11-19 14:29:59 大小:109.27 MB 文件数量:12 热度:13 最近下载:2025-08-24 18:02:15
    {"Radar men from the Moon - Echo Forever": {"Radar men from the Moon - Echo Forever - ... Moonjuice.mp3": 16174130, "Radar men from the Moon - Intergalactic dada & Space trombones ... colonists.mp3": 23301379, "Radar men from the Moon - Intergalactic dada & Space ...
创建时间: 2018-11-22 11:07:56 大小:222.83 MB 文件数量:14 热度:8 最近下载:2023-04-18 13:10:02
    {"RARBG.com.txt": 34, "First.Men.in.the.Moon.1964.720p.BluRay.x264-SADPANDA.mkv": 4692575460, "first.men.in.the.moon.1964.720p.bluray.x264-sadpanda.nfo": 8375}
创建时间: 2018-11-22 22:38:38 大小:4.37 GB 文件数量:3 热度:11 最近下载:2024-12-25 02:01:31
    ... .png": 349656, "The First Men In The Moon-wbz.avi": 1334858406, "vlcsnap ...
创建时间: 2018-12-06 04:44:48 大小:1.25 GB 文件数量:8 热度:12 最近下载:2023-04-22 07:10:07
    {"BF - The First Men In The Moon.mp3": 141805768, "bfcl010_thefirstmeninthemoon_1417_cover_large.jpg": 130411}
创建时间: 2018-12-07 21:22:59 大小:135.36 MB 文件数量:2 热度:8 最近下载:2025-08-04 01:48:05
    ... Wells - The First Men In The Moon Episode 1 10-09- ... Wells - The First Men In The Moon Episode 2 11-09 ... Wells - The First Men In The Moon Episode 3 12-09 ... Wells - The First Men In The Moon Episode 4 13-09 ... HG Wells - The First Men In The Moon read by Tim Pigott ...
创建时间: 2018-12-10 02:29:19 大小:63.76 MB 文件数量:6 热度:11 最近下载:2025-03-23 15:34:04
    ... .png": 349656, "The First Men In The Moon-wbz.avi": 1334858406, "vlcsnap ...
创建时间: 2018-12-13 20:32:01 大小:1.25 GB 文件数量:9 热度:6 最近下载:2022-04-23 06:51:00
    {"www.Torrentday.com.txt": 493, "Please Read This Guide Now.txt": 493, "first.men.in.the.moon.2010.720p.hdtv-bia.nfo": 8151, "first.men.in.the.moon.2010.720p.hdtv.x264-bia.mkv": 2345836730}
创建时间: 2018-12-17 15:12:41 大小:2.18 GB 文件数量:4 热度:8 最近下载:2025-10-02 09:10:02
    {"Sample": {"vmt-menmoon-xvid-sample.avi": 8628224}, "vmt-menmoon-xvid.nfo": 11289, "UsaBit.com_vmt-menmoon-xvid.avi": 734998528}
创建时间: 2018-12-19 22:47:46 大小:709.19 MB 文件数量:3 热度:7 最近下载:2022-04-23 06:38:19
    ... Neon.flac": 140121740, "Radar men from the Moon - Subversive I - 02 Habitual ... .flac": 124400127, "Radar men from the Moon - Subversive I - 04 Hacienda ... .flac": 115173018, "Radar men from the Moon - Subversive I - 01 Deconstruction ...
创建时间: 2018-12-21 19:39:55 大小:450.58 MB 文件数量:5 热度:13 最近下载:2022-04-23 06:33:25
    {"RARBG.COM.mp4": 1016764, "RARBG.COM.txt": 34, "First.Men.In.The.Moon.1964.1080p.BluRay.H264.AAC-RARBG.mp4": 2110646048, "First.Men.In.The.Moon.1964.1080p.BluRay.H264.AAC-RARBG.nfo": 6917}
创建时间: 2018-12-22 06:49:43 大小:1.97 GB 文件数量:4 热度:8 最近下载:2024-12-20 16:48:03
    ... Forever": {"04. RADAR MEN FROM THE MOON - DARKNESS.mp3": ... MEN FROM THE MOON - ECHO FOREVER.mp3": 17667519, "02. RADAR MEN FROM THE MOON ... - ATOMIC MOTHER.mp3": 19949578, "07. RADAR MEN FROM THE MOON ... "06. RADAR MEN FROM THE MOON - WHERE SKY ...
创建时间: 2018-12-22 15:19:37 大小:225.94 MB 文件数量:16 热度:4 最近下载:2022-04-23 06:03:53
    {"Rocket Men_ The Epic Story of the First Men on the Moon (2009) by Craig Nelson.epub": 614673, "Rocket Men_ The Epic Story of the First Men on the Moon (2009) by Craig Nelson.mobi": 899575}
创建时间: 2018-12-23 15:10:26 大小:1.44 MB 文件数量:2 热度:7 最近下载:2025-01-04 04:51:03
    {"README.txt": 77, "First Men in the Moon 1964 DVDRip x264.mkv": 839599177}
创建时间: 2018-12-24 03:02:09 大小:800.7 MB 文件数量:2 热度:6 最近下载:2022-04-23 05:52:17
    ... Explode.flac": 62613478, "Radar Men From The Moon - Intergalactic Dada & Space Trombones ... .log": 7780, "Radar Men From The Moon - Intergalactic Dada & Space Trombones ... .m3u": 485, "Radar Men From The Moon - Intergalactic Dada & Space ...
创建时间: 2018-12-24 05:39:56 大小:598.73 MB 文件数量:24 热度:6 最近下载:2022-04-23 06:18:26
    {"cover.jpg": 59200, "11 Freaky.mp3": 5873278, "08 Electric.mp3": 7912922, "04 The Seeds.mp3": 10403961, "07 The Brass.mp3": 8153250, "10 Bird Song.mp3": 10238868, "12 Supermoon.mp3": 19260517, "09 I See No One.mp3": 8192963, "01 Open The Door.mp3": ...
创建时间: 2018-12-24 09:49:49 大小:106.47 MB 文件数量:13 热度:11 最近下载:2025-08-02 00:50:03